Baltimore, Maryland
Current Conditions -  °F | °C
As of 9:50 AM on Wednesday 22 Oct 2014 (Local Time) from KBWI Reporting Station
Moderate Rain Moderate Rain  
Wind Chill: 54°   Ceiling: 2800
Heat Index: 54°   Visibility: 3mi
Dew Point: 52°   Wind: 10mph
Humidity: 94%   Direction: 340°NNW
Pressure: 29.91"   Gusts: 16mph
Location:  39.29°N, 76.61°W
Report Text: KBWI 221350Z 34009G14KT 3SM RA BR FEW008 SCT013 OVC028 12/11 A2991 RMK AO2 P0017
Loading
Personal Weather Stations






























Interactive Weather Map
Tropical Storm Tracking
New forecast layout! Learn more

10-Day Weather Forecast

Advertisements
Track Severe Weather on mobile